This is the latest recevied weather packets stored in our database for station/object LA3SP-1. If no packets are shown the sender has not sent any weather packets the latest 10 day(s).
| Time | Temp. | Humidity | Pressure | Rain* | Wind** | Luminosity | Snow |
|---|---|---|---|---|---|---|---|
| 1778100948 | -4.44° C | 68% | 1008 hPa | 0 mm | - | - | - |
| 1778099144 | -3.33° C | 65% | 1008 hPa | 0 mm | - | - | - |
| 1778098543 | -2.78° C | 64% | 1008.2 hPa | 0 mm | - | - | - |
| 1778097340 | -2.78° C | 64% | 1008 hPa | 0 mm | - | - | - |
| 1778096739 | -2.78° C | 63% | 1008.1 hPa | 0 mm | - | - | - |
| 1778095536 | -2.22° C | 61% | 1007.8 hPa | 0 mm | - | - | - |
| 1778094935 | -2.22° C | 61% | 1007.9 hPa | 0 mm | - | - | - |
| 1778094333 | -1.67° C | 61% | 1008 hPa | 0 mm | - | - | - |
| 1778093732 | -1.67° C | 60% | 1008 hPa | 0 mm | - | - | - |
| 1778093418 | -0.56° C | 58% | 1007.8 hPa | 0 mm | - | - | - |
| 1778093130 | -1.11° C | 60% | 1007.9 hPa | 0 mm | - | - | - |
| 1778092529 | -0.56° C | 58% | 1007.8 hPa | 0 mm | - | - | - |
| 1778090725 | 0.56° C | 55% | 1007.3 hPa | 0 mm | - | - | - |
| 1778090123 | 1.11° C | 54% | 1007.3 hPa | 0 mm | - | - | - |
| 1778089522 | 1.11° C | 54% | 1007.3 hPa | 0 mm | - | - | - |
| 1778088920 | 1.67° C | 53% | 1007.2 hPa | 0 mm | - | - | - |
| 1778087117 | 2.22° C | 53% | 1007.1 hPa | 0 mm | - | - | - |
| 1778086515 | 2.22° C | 53% | 1007 hPa | 0 mm | - | - | - |
| 1778085914 | 2.22° C | 53% | 1007 hPa | 0 mm | - | - | - |
| 1778085312 | 2.78° C | 52% | 1007.1 hPa | 0 mm | - | - | - |
| 1778084711 | 2.78° C | 52% | 1007 hPa | 0 mm | - | - | - |
| 1778084109 | 2.78° C | 52% | 1007.2 hPa | 0 mm | - | - | - |
| 1778083489 | 3.89° C | 53% | 1007.3 hPa | 0 mm | - | - | - |
| 1778082907 | 3.33° C | 52% | 1007.2 hPa | 0 mm | - | - | - |
| 1778082305 | 3.33° C | 52% | 1007.1 hPa | 0 mm | - | - | - |
* Rain latest 24 hours (hover to see other rain measurements)
** Current wind speed in m/s (hover to see current wind gust speed)